Time;durP1;ratioP1;P1;durP2;ratioP2;P2;SDS_P1;SDS_P2;PMS_P1;PMS_P2;Temp;Humidity;BMP_temperature;BMP_pressure;BME280_temperature;BME280_humidity;BME280_pressure;Samples;Min_cycle;Max_cycle;Signal;HPM_P1;HPM_P2
2022/03/31 00:00:41;;;;;;;4.72;2.85;;;;;;;0.59;89.36;100948.44;5062027;28;20063;-78
2022/03/31 00:03:09;;;;;;;6.68;3.78;;;;;;;0.59;89.42;100954.56;5062844;28;20033;-78
2022/03/31 00:05:36;;;;;;;4.50;3.05;;;;;;;0.63;88.78;100965.78;5047797;28;20047;-78
2022/03/31 00:08:04;;;;;;;3.55;2.47;;;;;;;0.63;87.82;100945.44;5063760;28;20111;-78
2022/03/31 00:10:31;;;;;;;5.00;3.40;;;;;;;0.71;87.42;100966.09;5065717;28;20040;-77
2022/03/31 00:12:58;;;;;;;8.60;3.20;;;;;;;0.70;86.68;100956.47;5062555;28;20040;-78
2022/03/31 00:15:26;;;;;;;7.97;3.78;;;;;;;0.81;85.25;100958.38;5058866;28;20036;-79
2022/03/31 00:17:53;;;;;;;3.63;2.22;;;;;;;0.68;84.93;100963.66;5057219;28;20033;-78
2022/03/31 00:33:46;;;;;;;3.30;1.20;;;;;;;0.52;83.94;100993.00;5057928;28;20037;-78
2022/03/31 00:36:13;;;;;;;2.42;1.80;;;;;;;0.47;82.92;100984.50;5048643;28;20039;-78
2022/03/31 00:38:38;;;;;;;4.80;2.63;;;;;;;0.55;82.75;101003.34;5043773;28;20604;-78
2022/03/31 00:41:04;;;;;;;4.90;2.00;;;;;;;0.35;83.40;100988.84;5049587;28;20029;-77
2022/03/31 00:43:30;;;;;;;3.35;2.47;;;;;;;0.47;83.14;101003.03;5063498;28;20032;-78
2022/03/31 00:45:56;;;;;;;3.65;1.65;;;;;;;0.39;82.91;101000.91;5029001;28;20040;-78
2022/03/31 00:48:22;;;;;;;2.55;2.03;;;;;;;0.22;83.22;101014.44;5062869;28;20064;-77
2022/03/31 00:50:49;;;;;;;5.30;2.50;;;;;;;0.03;84.94;101025.41;5057853;28;20447;-78
2022/03/31 00:53:18;;;;;;;5.88;2.38;;;;;;;-0.34;85.55;101019.03;5073198;28;20367;-78
2022/03/31 00:55:48;;;;;;;7.07;2.85;;;;;;;-0.81;87.45;101009.69;5045915;28;20539;-78
2022/03/31 00:58:14;;;;;;;3.72;2.65;;;;;;;-1.15;89.44;101028.47;5032055;28;20401;-78
2022/03/31 01:00:40;;;;;;;6.30;2.38;;;;;;;-1.38;91.94;101035.13;5048993;28;20028;-78
2022/03/31 01:03:06;;;;;;;5.97;2.80;;;;;;;-1.58;93.54;101036.34;5056889;28;20390;-78
2022/03/31 01:05:32;;;;;;;4.22;2.60;;;;;;;-1.77;94.58;101031.31;5053048;28;20040;-79
2022/03/31 01:07:58;;;;;;;4.70;2.45;;;;;;;-1.79;95.69;101038.44;5049725;28;20036;-78
2022/03/31 01:10:23;;;;;;;6.70;2.92;;;;;;;-1.90;96.83;101022.41;5031002;28;20390;-78
2022/03/31 01:12:50;;;;;;;6.18;2.90;;;;;;;-1.68;96.83;101037.81;5042776;28;20072;-78
2022/03/31 01:15:18;;;;;;;7.85;2.60;;;;;;;-1.74;96.30;101040.81;5040789;28;20040;-79
2022/03/31 01:17:46;;;;;;;4.25;2.60;;;;;;;-1.92;97.42;101029.56;5031344;28;20064;-77
2022/03/31 01:20:15;;;;;;;5.78;2.55;;;;;;;-1.81;98.42;101044.75;5027702;28;20028;-78
2022/03/31 01:22:42;;;;;;;5.03;2.80;;;;;;;-1.64;98.67;101047.25;5062463;28;20110;-77
2022/03/31 01:25:09;;;;;;;6.15;3.00;;;;;;;-1.69;97.93;101048.44;5031130;28;20028;-78
2022/03/31 01:27:40;;;;;;;4.65;3.08;;;;;;;-1.77;98.30;101062.94;5049180;28;20367;-78
2022/03/31 01:30:07;;;;;;;6.72;2.92;;;;;;;-1.88;98.84;101061.84;5045774;28;20055;-78
2022/03/31 01:32:33;;;;;;;5.38;3.45;;;;;;;-2.00;99.35;101061.63;5061757;28;20390;-79
2022/03/31 01:34:59;;;;;;;6.78;3.22;;;;;;;-2.03;100.00;101069.69;5049558;28;20041;-78
2022/03/31 01:37:25;;;;;;;2.90;1.55;;;;;;;-2.00;100.00;101076.59;5064205;28;20044;-78
2022/03/31 01:39:51;;;;;;;7.38;3.20;;;;;;;-1.97;100.00;101068.50;5033133;28;20075;-78
2022/03/31 01:42:17;;;;;;;2.80;1.83;;;;;;;-1.90;100.00;101066.38;5061983;28;20087;-79
2022/03/31 01:44:43;;;;;;;3.92;2.30;;;;;;;-1.80;100.00;101072.78;5050285;28;20120;-78
2022/03/31 01:47:11;;;;;;;4.13;2.65;;;;;;;-1.87;99.32;101051.22;5066914;28;20119;-78
2022/03/31 01:49:37;;;;;;;6.70;3.10;;;;;;;-1.59;98.23;101082.13;5049027;28;20071;-78
2022/03/31 01:52:04;;;;;;;2.70;1.92;;;;;;;-1.63;97.17;101077.09;5028732;28;20489;-78
2022/03/31 01:54:30;;;;;;;3.20;2.63;;;;;;;-1.63;96.51;101082.38;5056218;28;20033;-77
2022/03/31 01:56:56;;;;;;;7.53;2.60;;;;;;;-1.74;97.04;101074.25;5055673;28;20036;-77
2022/03/31 01:59:21;;;;;;;4.20;2.38;;;;;;;-1.79;97.07;101080.63;5066295;28;20466;-77
2022/03/31 02:01:48;;;;;;;8.93;2.95;;;;;;;-2.02;96.64;101074.03;5044643;28;20036;-78
2022/03/31 02:04:15;;;;;;;4.03;2.35;;;;;;;-2.22;98.66;101067.25;5041025;28;20327;-78
2022/03/31 02:06:41;;;;;;;5.68;2.63;;;;;;;-2.23;98.11;101081.34;5064227;28;20441;-77
2022/03/31 02:09:07;;;;;;;3.50;2.20;;;;;;;-2.28;98.77;101093.94;5032721;28;20087;-77
2022/03/31 02:11:33;;;;;;;6.18;2.80;;;;;;;-2.27;99.29;101093.00;5062998;28;20457;-76
2022/03/31 02:13:59;;;;;;;2.58;1.95;;;;;;;-2.43;99.39;101097.44;5028451;28;20086;-78
2022/03/31 02:16:24;;;;;;;4.50;2.40;;;;;;;-2.55;99.48;101098.09;5053896;28;20493;-77
2022/03/31 02:18:50;;;;;;;5.32;2.33;;;;;;;-2.65;100.00;101095.09;5043446;28;20028;-79
2022/03/31 02:21:18;;;;;;;4.40;2.60;;;;;;;-2.67;100.00;101097.81;5054217;28;20052;-77
2022/03/31 02:23:44;;;;;;;3.00;1.88;;;;;;;-2.71;100.00;101098.06;5028632;28;20028;-78
2022/03/31 02:26:10;;;;;;;4.60;2.45;;;;;;;-2.90;100.00;101095.56;5042896;28;20040;-78
2022/03/31 02:28:36;;;;;;;6.75;2.65;;;;;;;-3.00;100.00;101102.25;5058908;28;20511;-77
2022/03/31 02:31:01;;;;;;;4.43;2.35;;;;;;;-3.09;100.00;101100.97;5031914;28;20050;-77
2022/03/31 02:33:27;;;;;;;9.93;3.15;;;;;;;-3.08;100.00;101102.63;5059830;28;20028;-77
2022/03/31 02:35:52;;;;;;;4.63;1.83;;;;;;;-3.17;100.00;101092.63;5057057;28;20039;-78
2022/03/31 02:38:18;;;;;;;3.88;2.08;;;;;;;-3.19;100.00;101107.63;5033750;28;20033;-77
2022/03/31 02:40:46;;;;;;;4.57;2.75;;;;;;;-3.36;100.00;101109.34;5044452;28;20044;-77
2022/03/31 02:43:12;;;;;;;5.05;2.45;;;;;;;-3.57;100.00;101115.69;5030598;28;20520;-77
2022/03/31 02:45:38;;;;;;;4.20;1.88;;;;;;;-3.74;100.00;101121.75;5052042;28;20068;-77
2022/03/31 02:48:03;;;;;;;4.25;2.03;;;;;;;-3.85;100.00;101117.03;5070221;28;20351;-77
2022/03/31 02:50:29;;;;;;;2.85;1.95;;;;;;;-3.82;100.00;101121.28;5052536;28;20123;-78
2022/03/31 02:55:39;;;;;;;3.58;1.80;;;;;;;-3.85;100.00;101089.91;5064620;28;20024;-77
2022/03/31 02:58:05;;;;;;;5.93;2.13;;;;;;;-3.58;100.00;101134.97;5060993;28;20412;-77
2022/03/31 03:00:33;;;;;;;1.98;1.48;;;;;;;-3.66;100.00;101122.22;5052025;28;20103;-78
2022/03/31 03:02:59;;;;;;;3.88;2.05;;;;;;;-3.57;100.00;101131.44;5064276;28;20024;-77
2022/03/31 03:05:25;;;;;;;2.60;1.80;;;;;;;-3.67;100.00;101133.66;5069186;28;20023;-77
2022/03/31 03:07:51;;;;;;;3.72;1.77;;;;;;;-3.73;100.00;101133.97;5052565;28;20377;-79
2022/03/31 03:10:16;;;;;;;4.38;1.90;;;;;;;-3.64;100.00;101138.78;5069296;28;20046;-77
2022/03/31 03:12:42;;;;;;;1.52;1.00;;;;;;;-3.62;100.00;101150.06;5029712;28;20614;-77
2022/03/31 03:15:09;;;;;;;1.73;1.42;;;;;;;-3.53;100.00;101135.59;5063337;28;20028;-78
2022/03/31 03:17:36;;;;;;;2.72;1.48;;;;;;;-3.50;100.00;101137.22;5066294;28;20055;-79
2022/03/31 03:20:01;;;;;;;7.10;2.28;;;;;;;-3.36;100.00;101138.25;5065098;28;20032;-78
2022/03/31 03:22:27;;;;;;;2.70;1.85;;;;;;;-3.33;100.00;101138.09;5061660;28;20389;-77
2022/03/31 03:24:52;;;;;;;1.40;1.05;;;;;;;-3.10;100.00;101134.31;5061886;28;20043;-78
2022/03/31 03:27:18;;;;;;;3.53;1.70;;;;;;;-2.97;100.00;101133.66;5061490;28;20022;-78
2022/03/31 03:29:46;;;;;;;3.72;2.00;;;;;;;-2.97;100.00;101137.13;5053306;28;20020;-78
2022/03/31 03:32:15;;;;;;;1.50;1.35;;;;;;;-2.74;100.00;101142.97;5065040;28;20492;-77
2022/03/31 03:34:41;;;;;;;5.15;2.28;;;;;;;-2.47;100.00;101148.53;5036865;28;20453;-78
2022/03/31 03:37:07;;;;;;;4.53;2.13;;;;;;;-2.06;100.00;101133.13;5030758;28;20283;-78
2022/03/31 03:39:34;;;;;;;3.08;1.80;;;;;;;-1.58;100.00;101141.81;5058717;28;20048;-78
2022/03/31 03:42:01;;;;;;;2.55;1.88;;;;;;;-1.39;98.70;101146.03;5051093;28;20035;-77
2022/03/31 03:44:27;;;;;;;1.75;1.25;;;;;;;-1.35;98.15;101145.75;5051105;28;20032;-79
2022/03/31 03:46:52;;;;;;;2.22;1.50;;;;;;;-1.36;97.75;101146.69;5032711;28;20040;-78
2022/03/31 03:49:18;;;;;;;5.35;2.28;;;;;;;-1.23;96.92;101153.88;5064783;28;20089;-78
2022/03/31 03:51:44;;;;;;;2.88;1.83;;;;;;;-1.40;96.81;101139.91;5048437;28;20033;-77
2022/03/31 03:54:10;;;;;;;5.45;1.98;;;;;;;-1.56;97.37;101149.66;5046540;28;20059;-79
2022/03/31 03:56:38;;;;;;;4.05;1.75;;;;;;;-1.65;98.79;101153.63;5050852;28;20378;-77
2022/03/31 03:59:04;;;;;;;7.03;2.20;;;;;;;-1.51;98.54;101152.00;5061388;28;20580;-77
2022/03/31 04:01:30;;;;;;;2.88;1.65;;;;;;;-1.37;97.50;101160.81;5051819;28;20085;-78
2022/03/31 04:03:57;;;;;;;3.95;1.85;;;;;;;-1.34;96.76;101160.63;5061662;28;20037;-78
2022/03/31 04:06:23;;;;;;;5.32;3.75;;;;;;;-1.32;97.03;101168.47;5069094;28;20044;-78
2022/03/31 04:08:49;;;;;;;1.70;1.33;;;;;;;-1.25;96.84;101171.59;5062382;28;20059;-79
2022/03/31 04:11:14;;;;;;;5.20;2.33;;;;;;;-1.32;96.29;101157.94;5035545;28;20490;-78
2022/03/31 04:13:40;;;;;;;3.13;2.05;;;;;;;-1.15;95.77;101183.31;5062733;28;20039;-78
2022/03/31 04:16:06;;;;;;;5.03;2.83;;;;;;;-1.21;95.88;101181.88;5030688;28;20078;-79
2022/03/31 04:18:32;;;;;;;4.22;2.45;;;;;;;-1.10;95.25;101191.81;5028392;28;20115;-78
2022/03/31 04:21:01;;;;;;;7.68;3.40;;;;;;;-1.02;95.30;101179.00;5047160;28;20377;-78
2022/03/31 04:23:27;;;;;;;4.18;2.03;;;;;;;-1.02;94.36;101180.81;5053480;28;20509;-78
2022/03/31 04:25:52;;;;;;;3.03;1.80;;;;;;;-0.89;93.94;101185.25;5051948;28;20025;-79
2022/03/31 04:28:18;;;;;;;4.07;2.70;;;;;;;-0.81;93.20;101183.97;5048432;28;20047;-78
2022/03/31 04:30:46;;;;;;;7.20;2.22;;;;;;;-0.76;92.40;101190.66;5029532;28;20413;-78
2022/03/31 04:33:14;;;;;;;6.68;2.47;;;;;;;-0.83;92.54;101186.66;5048560;28;20025;-78
2022/03/31 04:35:39;;;;;;;3.42;1.90;;;;;;;-0.73;91.99;101198.38;5046264;28;20036;-79
2022/03/31 04:38:06;;;;;;;4.03;1.83;;;;;;;-0.65;91.60;101186.53;5063860;28;20033;-78
2022/03/31 04:40:32;;;;;;;3.08;2.13;;;;;;;-0.62;91.50;101196.91;5049914;28;20025;-78
2022/03/31 04:42:58;;;;;;;7.72;2.90;;;;;;;-0.52;90.80;101192.75;5032440;28;20036;-78
2022/03/31 04:45:24;;;;;;;3.80;2.75;;;;;;;-0.60;90.94;101193.22;5051576;28;20037;-77
2022/03/31 04:47:49;;;;;;;3.92;2.30;;;;;;;-0.80;91.98;101201.47;5048573;28;20033;-77
2022/03/31 04:50:15;;;;;;;5.60;2.60;;;;;;;-0.84;92.93;101200.81;5032337;28;20377;-77
2022/03/31 04:52:42;;;;;;;5.43;1.65;;;;;;;-0.64;91.44;101207.53;5052646;28;20067;-77
2022/03/31 04:55:08;;;;;;;3.35;1.52;;;;;;;-0.91;91.96;101202.13;5064585;28;20098;-78
2022/03/31 04:57:33;;;;;;;2.40;1.58;;;;;;;-1.06;93.19;101226.78;5049967;28;20054;-78
2022/03/31 04:59:59;;;;;;;2.28;1.40;;;;;;;-1.33;94.24;101230.06;5049870;28;20040;-78
2022/03/31 05:02:25;;;;;;;5.95;2.17;;;;;;;-1.57;95.63;101224.41;5043252;28;20033;-78
2022/03/31 05:04:51;;;;;;;7.95;2.63;;;;;;;-1.61;97.52;101233.44;5044152;28;20021;-79
2022/03/31 05:07:16;;;;;;;4.57;2.22;;;;;;;-1.67;97.22;101224.06;5051325;28;20060;-77
2022/03/31 05:09:42;;;;;;;3.35;2.25;;;;;;;-1.27;96.21;101234.16;5050952;28;20454;-78
2022/03/31 05:12:08;;;;;;;3.08;1.63;;;;;;;-1.14;95.63;101243.06;5078961;28;20044;-77
2022/03/31 05:14:34;;;;;;;7.80;3.47;;;;;;;-0.96;94.36;101252.53;5046292;28;20412;-78
2022/03/31 05:17:01;;;;;;;3.95;1.95;;;;;;;-0.84;93.84;101247.50;5063013;28;20024;-77
2022/03/31 05:19:27;;;;;;;5.22;3.15;;;;;;;-0.55;91.47;101238.69;5026823;28;20044;-77
2022/03/31 05:21:53;;;;;;;2.88;2.05;;;;;;;-0.71;89.74;101203.59;5065689;28;20074;-78
2022/03/31 05:24:18;;;;;;;4.43;1.80;;;;;;;-0.50;89.99;101255.13;5056338;28;20036;-78
2022/03/31 05:26:45;;;;;;;9.52;2.53;;;;;;;-0.39;89.36;101248.34;5046256;28;20338;-77
2022/03/31 05:29:13;;;;;;;4.28;2.63;;;;;;;-0.50;89.31;101251.63;5045923;28;20056;-77
2022/03/31 05:31:40;;;;;;;6.22;2.72;;;;;;;-0.57;89.11;101245.00;5064431;28;20056;-78
2022/03/31 05:34:05;;;;;;;4.53;2.25;;;;;;;-0.53;90.27;101272.91;5043360;28;20040;-78
2022/03/31 05:36:31;;;;;;;4.15;2.15;;;;;;;-0.50;90.12;101255.13;5040242;28;20366;-78
2022/03/31 05:38:57;;;;;;;3.58;1.90;;;;;;;-0.48;89.69;101276.13;5065160;28;20028;-77
2022/03/31 05:41:26;;;;;;;6.40;2.50;;;;;;;-0.59;90.15;101271.50;5064736;28;20043;-78
2022/03/31 05:43:52;;;;;;;7.40;3.33;;;;;;;-0.41;89.59;101281.91;5063490;28;20032;-77
2022/03/31 05:46:21;;;;;;;3.08;2.10;;;;;;;-0.49;89.41;101279.72;5033932;28;20036;-77
2022/03/31 05:48:46;;;;;;;3.53;2.20;;;;;;;-0.61;90.30;101280.44;5062490;28;20374;-78
2022/03/31 05:51:42;;;;;;;5.57;2.35;;;;;;;-0.50;89.89;101297.38;5032247;28;20045;-77
2022/03/31 05:54:34;;;;;;;3.38;2.00;;;;;;;-0.49;90.17;101300.88;5027670;28;20535;-77
2022/03/31 05:57:00;;;;;;;4.05;2.17;;;;;;;-0.59;90.39;101311.13;5040935;28;20032;-77
2022/03/31 05:59:26;;;;;;;4.05;2.03;;;;;;;-0.60;90.50;101325.28;5026249;28;20123;-77
2022/03/31 06:01:51;;;;;;;4.07;1.75;;;;;;;-0.56;90.84;101329.41;5056505;28;20031;-77
2022/03/31 06:04:20;;;;;;;1.80;1.58;;;;;;;-0.76;91.13;101301.56;5043137;28;20159;-77
2022/03/31 06:06:48;;;;;;;1.83;1.48;;;;;;;-0.59;91.73;101331.41;5039295;28;20481;-78
2022/03/31 06:09:14;;;;;;;3.53;1.50;;;;;;;-0.67;91.44;101323.94;5057596;28;20041;-78
2022/03/31 06:11:40;;;;;;;3.63;1.70;;;;;;;-0.64;92.22;101344.03;5066558;28;20036;-76
2022/03/31 06:14:06;;;;;;;4.20;2.17;;;;;;;-0.67;92.51;101339.78;5039706;28;20041;-78
2022/03/31 06:16:32;;;;;;;2.95;1.95;;;;;;;-0.63;92.23;101343.94;5038358;28;20085;-77
2022/03/31 06:18:58;;;;;;;3.00;1.42;;;;;;;-0.63;91.79;101341.31;5055572;28;20123;-77
2022/03/31 06:21:23;;;;;;;2.83;1.55;;;;;;;-0.75;92.38;101316.44;5057424;28;20119;-77
2022/03/31 06:23:49;;;;;;;5.18;1.95;;;;;;;-0.73;92.80;101332.22;5040875;28;20040;-77
2022/03/31 06:26:14;;;;;;;3.85;2.22;;;;;;;-0.74;92.87;101354.25;5041589;28;20111;-78
2022/03/31 06:28:40;;;;;;;3.70;2.45;;;;;;;-0.71;93.62;101354.94;5043194;28;20072;-77
2022/03/31 06:31:06;;;;;;;2.47;1.30;;;;;;;-0.63;93.06;101357.16;5040347;28;20367;-77
2022/03/31 06:33:32;;;;;;;4.55;1.90;;;;;;;-0.51;93.13;101364.34;5025483;28;20036;-78
2022/03/31 06:35:57;;;;;;;2.60;1.30;;;;;;;-0.43;92.67;101357.78;5055932;28;20052;-78
2022/03/31 06:38:23;;;;;;;3.03;1.33;;;;;;;-0.35;92.40;101366.09;5055972;28;20043;-78
2022/03/31 06:41:06;;;;;;;1.55;1.23;;;;;;;-0.31;91.90;101373.75;5023998;28;20461;-79
2022/03/31 06:43:33;;;;;;;2.92;1.45;;;;;;;-0.43;92.22;101337.47;5039701;28;20036;-78
2022/03/31 06:45:59;;;;;;;4.25;2.08;;;;;;;0.33;90.39;101376.94;5064304;28;20090;-78
2022/03/31 06:48:26;;;;;;;4.18;1.60;;;;;;;0.62;87.91;101390.16;5041786;28;20020;-78
2022/03/31 06:50:51;;;;;;;6.72;3.03;;;;;;;0.90;85.88;101396.34;5053823;28;20025;-79
2022/03/31 06:53:18;;;;;;;4.10;2.28;;;;;;;0.93;85.29;101377.59;5045173;28;20032;-79
2022/03/31 06:55:44;;;;;;;2.63;1.60;;;;;;;1.38;82.85;101392.34;5061844;28;20033;-77
2022/03/31 06:58:10;;;;;;;5.72;2.50;;;;;;;1.72;80.23;101395.38;5047591;28;20075;-77
2022/03/31 07:00:36;;;;;;;3.47;1.80;;;;;;;1.88;79.04;101404.03;5048795;28;20060;-78
2022/03/31 07:03:01;;;;;;;4.10;2.00;;;;;;;1.85;78.90;101392.75;5028460;28;20123;-79
2022/03/31 07:05:27;;;;;;;1.80;1.30;;;;;;;2.15;76.65;101411.06;5065187;28;20482;-78
2022/03/31 07:07:53;;;;;;;2.35;1.90;;;;;;;1.99;76.70;101411.25;5047075;28;20025;-78
2022/03/31 07:10:18;;;;;;;3.20;1.55;;;;;;;2.03;76.44;101406.56;5060789;28;20496;-78
2022/03/31 07:12:48;;;;;;;5.18;2.22;;;;;;;2.14;75.37;101409.34;5044710;28;20032;-78
2022/03/31 07:15:13;;;;;;;2.97;1.83;;;;;;;2.28;74.46;101413.72;5053290;28;20020;-79
2022/03/31 07:17:39;;;;;;;9.45;2.88;;;;;;;2.47;73.06;101422.09;5032793;28;20040;-78
2022/03/31 07:20:06;;;;;;;2.03;1.55;;;;;;;2.73;71.71;101420.25;5043491;28;20128;-79
2022/03/31 07:22:36;;;;;;;4.25;2.22;;;;;;;2.85;71.16;101426.47;5059328;28;20039;-78
2022/03/31 07:25:04;;;;;;;3.53;1.75;;;;;;;3.04;69.50;101431.31;5057818;28;20036;-78
2022/03/31 07:27:29;;;;;;;8.93;2.63;;;;;;;3.23;68.60;101422.88;5040013;28;20123;-78
2022/03/31 07:29:55;;;;;;;2.45;1.67;;;;;;;3.76;66.01;101428.69;5051133;28;20132;-77
2022/03/31 07:32:21;;;;;;;4.85;1.98;;;;;;;4.96;60.86;101422.06;5059964;28;20455;-77
2022/03/31 07:34:47;;;;;;;3.15;1.40;;;;;;;5.33;58.68;101440.41;5049894;28;20036;-77
2022/03/31 07:37:13;;;;;;;2.88;1.60;;;;;;;6.10;55.32;101445.59;5033859;28;20363;-77
2022/03/31 07:39:41;;;;;;;1.45;1.35;;;;;;;6.25;54.96;101451.47;5059606;28;20032;-77
2022/03/31 07:42:07;;;;;;;2.50;1.38;;;;;;;6.89;53.04;101453.91;5036066;28;20037;-78
2022/03/31 07:44:33;;;;;;;4.30;1.58;;;;;;;7.53;49.59;101441.13;5053177;28;20472;-77
2022/03/31 07:46:58;;;;;;;2.85;1.70;;;;;;;8.00;47.46;101443.94;5043171;28;20041;-78
2022/03/31 07:49:24;;;;;;;6.47;2.30;;;;;;;8.51;46.40;101448.09;5042252;28;20028;-79
2022/03/31 07:51:50;;;;;;;4.43;1.80;;;;;;;8.66;46.20;101449.34;5063332;28;20490;-78
2022/03/31 07:54:15;;;;;;;4.25;1.80;;;;;;;9.00;44.25;101454.97;5065410;28;20491;-78
2022/03/31 07:56:41;;;;;;;5.35;2.05;;;;;;;9.16;43.79;101454.34;5033671;28;20036;-79
2022/03/31 07:59:06;;;;;;;2.03;1.48;;;;;;;9.29;43.84;101463.84;5035093;28;20036;-77
2022/03/31 08:01:33;;;;;;;1.65;1.27;;;;;;;9.50;43.22;101459.09;5052254;28;20258;-77
2022/03/31 08:03:59;;;;;;;3.05;1.77;;;;;;;9.75;41.51;101464.69;5064817;28;20028;-78
2022/03/31 08:06:25;;;;;;;1.20;1.10;;;;;;;9.97;41.13;101461.53;5043690;28;20482;-78
2022/03/31 08:08:50;;;;;;;6.10;1.67;;;;;;;10.38;40.37;101458.38;5047310;28;20032;-79
2022/03/31 08:11:16;;;;;;;5.30;1.50;;;;;;;10.68;39.75;101457.03;5062756;28;20436;-78
2022/03/31 08:13:42;;;;;;;3.47;1.70;;;;;;;10.89;38.76;101465.56;5050072;28;20120;-78
2022/03/31 08:16:08;;;;;;;1.63;1.40;;;;;;;11.27;38.52;101468.72;5032840;28;20416;-79
2022/03/31 08:18:34;;;;;;;1.98;1.30;;;;;;;11.58;37.15;101466.31;5069818;28;20033;-79
2022/03/31 08:21:01;;;;;;;2.92;1.85;;;;;;;11.47;36.49;101455.00;5032297;28;20045;-77
2022/03/31 08:23:26;;;;;;;5.78;1.70;;;;;;;11.49;36.32;101453.84;5034362;28;20375;-79
2022/03/31 08:25:53;;;;;;;3.83;1.60;;;;;;;11.26;35.92;101469.75;5037092;28;20079;-78
2022/03/31 08:28:18;;;;;;;3.22;1.45;;;;;;;11.52;36.11;101468.81;5036201;28;20036;-78
2022/03/31 08:30:44;;;;;;;3.92;1.58;;;;;;;11.73;35.77;101471.06;5036843;28;20394;-79
2022/03/31 08:33:11;;;;;;;1.70;1.20;;;;;;;12.23;34.77;101484.44;5044770;28;20051;-79
2022/03/31 08:35:36;;;;;;;1.58;1.40;;;;;;;12.49;34.02;101476.16;5063169;28;20125;-79
2022/03/31 08:38:02;;;;;;;1.80;1.50;;;;;;;12.48;33.59;101471.75;5064524;28;20523;-78
2022/03/31 08:40:31;;;;;;;3.53;1.70;;;;;;;12.59;32.57;101478.66;5032628;28;20064;-79
2022/03/31 08:42:59;;;;;;;2.90;1.33;;;;;;;12.55;32.54;101477.31;5062979;28;20496;-78
2022/03/31 08:45:24;;;;;;;1.27;1.17;;;;;;;12.82;32.99;101486.03;5065832;28;20036;-77
2022/03/31 08:47:51;;;;;;;3.80;1.45;;;;;;;13.48;32.29;101492.06;5063811;28;20029;-79
2022/03/31 08:50:18;;;;;;;3.65;1.20;;;;;;;13.85;32.13;101497.56;5065451;28;20078;-79
2022/03/31 08:52:44;;;;;;;1.38;1.13;;;;;;;13.67;31.44;101498.88;5034845;28;20044;-78
2022/03/31 08:55:12;;;;;;;2.60;1.77;;;;;;;13.63;30.96;101482.19;5052512;28;20044;-78
2022/03/31 08:57:42;;;;;;;2.42;1.10;;;;;;;13.76;31.55;101495.06;5049014;28;20041;-78
2022/03/31 09:00:09;;;;;;;2.63;1.30;;;;;;;13.98;31.16;101496.97;5052975;28;20055;-78
2022/03/31 09:02:34;;;;;;;8.10;1.75;;;;;;;14.44;30.76;101505.03;5051412;28;20037;-78
2022/03/31 09:05:10;;;;;;;3.58;1.38;;;;;;;14.60;29.84;101514.91;5067475;28;20044;-78
2022/03/31 09:07:50;;;;;;;2.20;1.17;;;;;;;14.24;30.31;101501.19;5039626;28;20041;-78
2022/03/31 09:10:25;;;;;;;2.08;1.30;;;;;;;14.51;29.34;101514.09;5053129;28;20025;-78
2022/03/31 09:12:50;;;;;;;5.82;1.40;;;;;;;14.52;28.92;101515.81;5054013;28;20027;-78
2022/03/31 09:15:16;;;;;;;2.15;1.38;;;;;;;14.50;28.80;101515.16;5058025;28;20025;-78
2022/03/31 09:17:41;;;;;;;1.40;1.30;;;;;;;14.84;28.90;101516.50;5054245;28;20024;-78
2022/03/31 09:20:07;;;;;;;1.10;1.00;;;;;;;14.84;28.74;101523.81;5048169;28;20029;-78
2022/03/31 09:22:48;;;;;;;2.95;1.40;;;;;;;14.51;28.17;101527.63;5050788;28;20048;-78
2022/03/31 09:25:28;;;;;;;5.82;1.42;;;;;;;14.43;28.14;101525.00;5064390;28;20035;-78
2022/03/31 09:27:55;;;;;;;6.47;1.13;;;;;;;14.80;28.65;101534.16;5035910;28;20548;-78
2022/03/31 09:30:24;;;;;;;1.63;1.02;;;;;;;15.32;28.05;101538.69;5035063;28;20036;-79
2022/03/31 09:32:51;;;;;;;5.25;1.50;;;;;;;15.30;26.73;101531.75;5054997;28;20055;-79
2022/03/31 09:35:23;;;;;;;1.70;1.30;;;;;;;15.20;26.51;101526.63;5071106;28;20020;-78
2022/03/31 09:37:55;;;;;;;1.80;1.47;;;;;;;15.44;26.88;101540.91;5053468;28;20028;-79
2022/03/31 09:40:21;;;;;;;3.17;1.20;;;;;;;15.21;25.86;101543.72;5032470;28;20292;-79
2022/03/31 09:42:58;;;;;;;1.88;1.40;;;;;;;15.09;26.04;101556.91;5058578;28;20075;-79
2022/03/31 09:45:24;;;;;;;2.47;1.27;;;;;;;14.94;26.57;101541.47;5046684;28;20041;-78
2022/03/31 09:47:51;;;;;;;2.78;1.10;;;;;;;15.14;26.05;101543.63;5069352;28;20107;-77
2022/03/31 09:50:18;;;;;;;1.38;1.00;;;;;;;15.22;26.33;101534.56;5062170;28;20025;-76
2022/03/31 09:52:44;;;;;;;2.65;1.58;;;;;;;15.59;26.23;101558.00;5058470;28;20493;-76
2022/03/31 09:55:10;;;;;;;3.80;1.50;;;;;;;15.42;26.19;101560.03;5067827;28;20036;-76
2022/03/31 09:57:38;;;;;;;1.50;1.17;;;;;;;15.22;27.13;101564.38;5044434;28;20083;-75
2022/03/31 10:00:07;;;;;;;3.88;1.38;;;;;;;15.07;27.10;101562.50;5052843;28;20062;-76
2022/03/31 10:02:35;;;;;;;3.40;1.30;;;;;;;15.30;27.62;101567.00;5038411;28;20055;-75
2022/03/31 10:05:02;;;;;;;1.50;1.20;;;;;;;15.21;27.22;101554.53;5064516;28;20035;-76
2022/03/31 10:07:29;;;;;;;2.13;1.30;;;;;;;15.21;26.90;101563.50;5066965;28;20032;-76
2022/03/31 10:09:55;;;;;;;3.63;1.20;;;;;;;15.23;27.65;101575.00;5033713;28;20040;-76
2022/03/31 10:13:07;;;;;;;3.83;1.23;;;;;;;15.73;27.62;101578.00;5049950;28;20044;-75
2022/03/31 10:15:37;;;;;;;2.85;1.42;;;;;;;15.69;26.65;101577.56;5066595;28;20097;-76
2022/03/31 10:18:04;;;;;;;2.67;1.20;;;;;;;15.87;26.34;101577.13;5032432;28;20064;-75
2022/03/31 10:20:29;;;;;;;1.38;1.27;;;;;;;15.58;26.90;101564.44;5047101;28;20036;-75
2022/03/31 10:25:45;;;;;;;2.33;1.20;;;;;;;15.45;26.82;101575.94;5051497;28;20024;-77
2022/03/31 10:28:16;;;;;;;2.00;1.25;;;;;;;16.19;26.32;101583.09;5033335;28;20480;-74
2022/03/31 10:31:01;;;;;;;3.30;1.35;;;;;;;16.37;25.16;101590.81;5065041;28;20591;-75
2022/03/31 10:33:38;;;;;;;1.42;1.10;;;;;;;16.77;24.43;101599.31;5062141;28;20078;-75
2022/03/31 10:36:12;;;;;;;2.00;1.38;;;;;;;16.79;25.65;101573.66;5052077;28;20032;-78
2022/03/31 10:38:39;;;;;;;2.95;1.35;;;;;;;16.69;23.30;101573.97;5053330;28;20025;-77
2022/03/31 10:41:11;;;;;;;1.45;1.30;;;;;;;16.66;23.50;101565.38;5064928;28;20036;-76
2022/03/31 10:43:47;;;;;;;1.75;1.38;;;;;;;17.10;23.53;101588.75;5049839;28;20032;-77
2022/03/31 10:46:20;;;;;;;1.77;1.30;;;;;;;17.24;22.97;101585.06;5068393;28;20025;-77
2022/03/31 10:48:50;;;;;;;1.45;1.27;;;;;;;17.20;22.64;101574.78;5031374;28;20056;-76
2022/03/31 10:51:16;;;;;;;1.50;1.10;;;;;;;17.13;22.34;101581.00;5063151;28;20032;-77
2022/03/31 10:53:48;;;;;;;1.17;1.10;;;;;;;16.71;23.40;101571.91;5028416;28;20484;-77
2022/03/31 10:56:19;;;;;;;6.15;1.77;;;;;;;16.66;22.38;101568.94;5049233;28;20064;-77
2022/03/31 10:58:46;;;;;;;2.00;1.20;;;;;;;17.18;21.84;101576.88;5047003;28;20120;-76
2022/03/31 11:01:12;;;;;;;3.63;1.30;;;;;;;17.20;21.30;101597.38;5067362;28;20032;-76
2022/03/31 11:03:40;;;;;;;1.30;1.20;;;;;;;16.75;22.34;101580.50;5034380;28;20029;-77
2022/03/31 11:06:10;;;;;;;2.45;1.38;;;;;;;17.28;22.80;101582.75;5048359;28;20131;-76
2022/03/31 11:08:43;;;;;;;1.83;1.30;;;;;;;16.30;22.44;101581.75;5055973;28;20024;-77
2022/03/31 11:11:09;;;;;;;1.20;1.10;;;;;;;16.39;22.56;101572.47;5066960;28;20218;-77
2022/03/31 11:13:35;;;;;;;2.83;1.35;;;;;;;15.70;22.61;101573.78;5046991;28;20050;-76
2022/03/31 11:16:01;;;;;;;1.92;1.48;;;;;;;15.60;23.25;101584.06;5069765;28;20020;-76
2022/03/31 11:18:27;;;;;;;3.03;1.35;;;;;;;15.81;23.14;101580.59;5052119;28;20047;-76
2022/03/31 11:20:57;;;;;;;1.40;1.13;;;;;;;16.67;23.05;101575.19;5029680;28;20036;-76
2022/03/31 11:23:24;;;;;;;1.27;1.17;;;;;;;16.65;22.56;101580.00;5052785;28;20036;-77
2022/03/31 11:25:50;;;;;;;2.08;1.63;;;;;;;16.79;22.89;101589.13;5055460;28;20030;-76
2022/03/31 11:28:16;;;;;;;4.15;1.45;;;;;;;17.58;23.57;101586.09;5036974;28;20059;-77
2022/03/31 11:30:46;;;;;;;2.45;1.67;;;;;;;17.58;21.76;101591.53;5039523;28;20082;-76
2022/03/31 11:33:13;;;;;;;1.45;1.30;;;;;;;17.95;22.26;101589.41;5040853;28;20036;-76
2022/03/31 11:35:39;;;;;;;4.45;1.08;;;;;;;18.31;22.14;101589.09;5067309;28;20071;-77
2022/03/31 11:38:10;;;;;;;2.53;1.00;;;;;;;18.48;22.23;101588.69;5035836;28;20446;-76
2022/03/31 11:40:41;;;;;;;1.98;1.10;;;;;;;18.71;21.33;101594.56;5049005;28;22118;-76
2022/03/31 11:43:16;;;;;;;2.42;1.45;;;;;;;19.13;20.63;101592.44;5055007;28;20036;-76
2022/03/31 11:46:00;;;;;;;4.65;1.20;;;;;;;19.22;21.53;101587.63;5055635;28;20024;-77